Time;durP1;ratioP1;P1;durP2;ratioP2;P2;SDS_P1;SDS_P2;PMS_P1;PMS_P2;Temp;Humidity;BMP_temperature;BMP_pressure;BME280_temperature;BME280_humidity;BME280_pressure;Samples;Min_cycle;Max_cycle;Signal;HPM_P1;HPM_P2
2022/10/13 00:00:29;;;;;;;0.60;0.60;;;;;;;;;;5081326;28;20434;-78
2022/10/13 00:02:58;;;;;;;0.60;0.50;;;;;;;;;;5065615;28;20447;-78
2022/10/13 00:05:24;;;;;;;0.70;0.60;;;;;;;;;;5079729;28;20447;-77
2022/10/13 00:07:51;;;;;;;0.60;0.53;;;;;;;;;;5057280;28;20545;-77
2022/10/13 00:10:18;;;;;;;1.03;1.03;;;;;;;;;;5079200;28;20523;-78
2022/10/13 00:12:46;;;;;;;0.60;0.50;;;;;;;;;;5082224;28;20423;-78
2022/10/13 00:15:13;;;;;;;1.00;1.00;;;;;;;;;;5078503;28;20466;-77
2022/10/13 00:17:40;;;;;;;0.63;0.53;;;;;;;;;;5068252;28;20529;-78
2022/10/13 00:20:08;;;;;;;1.17;1.07;;;;;;;;;;5086186;28;20561;-78
2022/10/13 00:22:35;;;;;;;1.57;0.97;;;;;;;;;;5066280;28;20813;-77
2022/10/13 00:25:02;;;;;;;0.60;0.60;;;;;;;;;;5084024;28;20427;-77
2022/10/13 00:27:29;;;;;;;2.10;0.90;;;;;;;;;;5085894;28;20508;-76
2022/10/13 00:29:57;;;;;;;0.67;0.60;;;;;;;;;;5079858;28;20806;-77
2022/10/13 00:32:24;;;;;;;0.60;0.60;;;;;;;;;;5068009;28;20467;-78
2022/10/13 00:34:51;;;;;;;0.60;0.60;;;;;;;;;;5062549;28;20811;-76
2022/10/13 00:37:19;;;;;;;0.70;0.70;;;;;;;;;;5079327;28;20471;-78
2022/10/13 00:39:45;;;;;;;1.80;1.70;;;;;;;;;;5066319;28;20459;-78
2022/10/13 00:42:12;;;;;;;0.60;0.60;;;;;;;;;;5081756;28;20549;-78
2022/10/13 00:44:57;;;;;;;1.03;0.97;;;;;;;;;;5067556;28;21031;-78
2022/10/13 00:47:25;;;;;;;0.60;0.60;;;;;;;;;;5051945;28;20467;-77
2022/10/13 00:49:53;;;;;;;0.60;0.60;;;;;;;;;;5075726;28;20456;-78
2022/10/13 00:52:20;;;;;;;1.73;1.00;;;;;;;;;;5081855;28;20471;-78
2022/10/13 00:54:49;;;;;;;0.80;0.80;;;;;;;;;;5088439;28;20831;-78
2022/10/13 00:57:21;;;;;;;1.70;1.60;;;;;;;;;;5062311;28;20551;-79
2022/10/13 00:59:54;;;;;;;0.70;0.67;;;;;;;;;;5054527;28;20965;-78
2022/10/13 01:02:26;;;;;;;0.60;0.60;;;;;;;;;;5080096;28;20457;-78
2022/10/13 01:04:59;;;;;;;2.10;1.33;;;;;;;;;;5079557;28;20447;-77
2022/10/13 01:07:30;;;;;;;0.80;0.80;;;;;;;;;;5081271;28;20834;-78
2022/10/13 01:10:03;;;;;;;0.70;0.70;;;;;;;;;;5075638;28;20443;-77
2022/10/13 01:12:39;;;;;;;0.60;0.60;;;;;;;;;;5063830;28;20520;-77
2022/10/13 01:15:11;;;;;;;0.70;0.70;;;;;;;;;;5076744;28;21061;-77
2022/10/13 01:17:44;;;;;;;1.37;0.90;;;;;;;;;;5070262;28;20461;-77
2022/10/13 01:20:22;;;;;;;0.77;0.73;;;;;;;;;;5070588;28;20450;-77
2022/10/13 01:22:59;;;;;;;0.60;0.60;;;;;;;;;;5064723;28;20449;-79
2022/10/13 01:25:41;;;;;;;0.70;0.67;;;;;;;;;;5072127;28;20781;-77
2022/10/13 01:28:21;;;;;;;1.17;1.07;;;;;;;;;;5077576;28;20857;-78
2022/10/13 01:30:57;;;;;;;0.80;0.80;;;;;;;;;;5065546;28;20450;-77
2022/10/13 01:33:29;;;;;;;0.60;0.60;;;;;;;;;;5049706;28;20457;-77
2022/10/13 01:36:03;;;;;;;0.60;0.60;;;;;;;;;;5080539;28;20485;-78
2022/10/13 01:38:36;;;;;;;0.60;0.60;;;;;;;;;;5066186;28;20459;-78
2022/10/13 01:41:09;;;;;;;0.60;0.60;;;;;;;;;;5056021;28;20552;-78
2022/10/13 01:43:44;;;;;;;0.70;0.70;;;;;;;;;;5061230;28;20459;-78
2022/10/13 01:46:20;;;;;;;0.60;0.60;;;;;;;;;;5064997;28;20514;-78
2022/10/13 01:48:52;;;;;;;0.60;0.50;;;;;;;;;;5062584;28;21078;-78
2022/10/13 01:51:23;;;;;;;0.80;0.80;;;;;;;;;;5077837;28;20895;-78
2022/10/13 01:53:52;;;;;;;1.63;1.53;;;;;;;;;;5079987;28;20482;-79
2022/10/13 01:56:23;;;;;;;0.70;0.60;;;;;;;;;;5081444;28;20460;-78
2022/10/13 01:58:55;;;;;;;0.63;0.60;;;;;;;;;;5082945;28;20930;-78
2022/10/13 02:01:43;;;;;;;0.60;0.60;;;;;;;;;;5084577;28;20458;-79
2022/10/13 02:04:20;;;;;;;1.20;1.10;;;;;;;;;;5063188;28;20452;-77
2022/10/13 02:06:51;;;;;;;1.13;1.07;;;;;;;;;;5072909;28;20470;-77
2022/10/13 02:09:24;;;;;;;1.47;1.37;;;;;;;;;;5082852;28;20426;-78
2022/10/13 02:11:57;;;;;;;0.60;0.57;;;;;;;;;;5074998;28;20454;-77
2022/10/13 02:14:33;;;;;;;0.60;0.60;;;;;;;;;;5050922;28;20458;-78
2022/10/13 02:17:04;;;;;;;0.60;0.60;;;;;;;;;;5083325;28;20463;-78
2022/10/13 02:19:34;;;;;;;0.70;0.70;;;;;;;;;;5061344;28;20959;-76
2022/10/13 02:22:01;;;;;;;0.90;0.90;;;;;;;;;;5058391;28;21080;-77
2022/10/13 02:24:29;;;;;;;0.70;0.60;;;;;;;;;;5069223;28;20451;-77
2022/10/13 02:26:55;;;;;;;0.60;0.60;;;;;;;;;;5069496;28;20984;-78
2022/10/13 02:29:22;;;;;;;1.43;0.90;;;;;;;;;;5070547;28;20447;-78
2022/10/13 02:31:48;;;;;;;0.60;0.60;;;;;;;;;;5083521;28;20438;-78
2022/10/13 02:34:16;;;;;;;0.80;0.80;;;;;;;;;;5083788;28;20445;-78
2022/10/13 02:36:45;;;;;;;0.60;0.60;;;;;;;;;;5054900;28;20512;-78
2022/10/13 02:39:11;;;;;;;0.60;0.60;;;;;;;;;;5075867;28;20469;-78
2022/10/13 02:41:38;;;;;;;0.67;0.57;;;;;;;;;;5070680;28;20975;-78
2022/10/13 02:44:05;;;;;;;0.60;0.60;;;;;;;;;;5071184;28;20879;-79
2022/10/13 02:46:33;;;;;;;1.97;1.77;;;;;;;;;;5083204;28;20446;-79
2022/10/13 02:48:59;;;;;;;0.67;0.63;;;;;;;;;;5080427;28;20451;-78
2022/10/13 02:51:28;;;;;;;0.70;0.70;;;;;;;;;;5063946;28;20467;-78
2022/10/13 02:53:55;;;;;;;0.80;0.80;;;;;;;;;;5082503;28;21132;-78
2022/10/13 02:56:22;;;;;;;0.60;0.60;;;;;;;;;;5082499;28;20469;-78
2022/10/13 02:58:49;;;;;;;2.00;1.07;;;;;;;;;;5064575;28;20453;-79
2022/10/13 03:01:15;;;;;;;0.60;0.60;;;;;;;;;;5065341;28;20458;-78
2022/10/13 03:03:42;;;;;;;0.80;0.80;;;;;;;;;;5080144;28;20444;-78
2022/10/13 03:06:09;;;;;;;0.60;0.60;;;;;;;;;;5078832;28;20497;-78
2022/10/13 03:08:37;;;;;;;0.60;0.50;;;;;;;;;;5068222;28;20443;-76
2022/10/13 03:11:04;;;;;;;2.50;1.43;;;;;;;;;;5082163;28;20463;-75
2022/10/13 03:13:30;;;;;;;0.70;0.70;;;;;;;;;;5082491;28;20930;-76
2022/10/13 03:16:05;;;;;;;1.27;1.23;;;;;;;;;;5087403;28;20564;-77
2022/10/13 03:18:31;;;;;;;1.00;0.90;;;;;;;;;;5080156;28;20452;-77
2022/10/13 03:21:00;;;;;;;0.60;0.60;;;;;;;;;;5083812;28;20458;-76
2022/10/13 03:23:26;;;;;;;0.70;0.70;;;;;;;;;;5054459;28;20448;-76
2022/10/13 03:25:55;;;;;;;1.20;1.13;;;;;;;;;;5084994;28;20536;-76
2022/10/13 03:28:22;;;;;;;2.47;2.37;;;;;;;;;;5066940;28;20453;-76
2022/10/13 03:30:49;;;;;;;0.70;0.70;;;;;;;;;;5068905;28;20813;-78
2022/10/13 03:33:16;;;;;;;1.10;0.97;;;;;;;;;;5073578;28;20530;-77
2022/10/13 03:35:43;;;;;;;0.60;0.60;;;;;;;;;;5070910;28;20557;-78
2022/10/13 03:38:09;;;;;;;0.60;0.60;;;;;;;;;;5071564;28;20461;-76
2022/10/13 03:40:38;;;;;;;0.60;0.60;;;;;;;;;;5084604;28;20947;-78
2022/10/13 03:43:06;;;;;;;0.60;0.60;;;;;;;;;;5066618;28;20453;-78
2022/10/13 03:45:33;;;;;;;0.60;0.60;;;;;;;;;;5086430;28;20444;-78
2022/10/13 03:48:01;;;;;;;0.60;0.53;;;;;;;;;;5087479;28;20445;-79
2022/10/13 03:50:30;;;;;;;1.20;1.10;;;;;;;;;;5078927;28;20465;-77
2022/10/13 03:52:57;;;;;;;0.80;0.80;;;;;;;;;;5062618;28;20460;-78
2022/10/13 03:55:24;;;;;;;3.93;1.50;;;;;;;;;;5086703;28;20496;-79
2022/10/13 03:57:51;;;;;;;5.90;2.50;;;;;;;;;;5078272;28;20462;-78
2022/10/13 04:00:19;;;;;;;1.37;1.17;;;;;;;;;;5070270;28;20811;-77
2022/10/13 04:02:49;;;;;;;1.77;1.60;;;;;;;;;;5059728;28;20460;-77
2022/10/13 04:05:16;;;;;;;0.70;0.70;;;;;;;;;;5078527;28;20448;-78
2022/10/13 04:07:43;;;;;;;0.67;0.60;;;;;;;;;;5081991;28;20449;-77
2022/10/13 04:10:17;;;;;;;0.87;0.80;;;;;;;;;;5081164;28;20463;-78
2022/10/13 04:12:47;;;;;;;0.70;0.70;;;;;;;;;;5061118;28;20455;-79
2022/10/13 04:15:15;;;;;;;2.70;1.00;;;;;;;;;;5079871;28;20441;-78
2022/10/13 04:17:43;;;;;;;0.70;0.70;;;;;;;;;;5064434;28;20981;-78
2022/10/13 04:20:10;;;;;;;0.70;0.70;;;;;;;;;;5081417;28;20453;-77
2022/10/13 04:22:37;;;;;;;6.47;2.20;;;;;;;;;;5079838;28;20462;-75
2022/10/13 04:25:05;;;;;;;4.13;1.23;;;;;;;;;;5092489;28;20456;-78
2022/10/13 04:27:31;;;;;;;0.70;0.70;;;;;;;;;;5087510;28;20431;-78
2022/10/13 04:29:58;;;;;;;0.87;0.87;;;;;;;;;;5082791;28;20815;-80
2022/10/13 04:32:26;;;;;;;0.63;0.60;;;;;;;;;;5085853;28;20453;-77
2022/10/13 04:34:54;;;;;;;0.80;0.80;;;;;;;;;;5082821;28;20462;-76
2022/10/13 04:37:22;;;;;;;0.70;0.70;;;;;;;;;;5073983;28;20481;-78
2022/10/13 04:39:50;;;;;;;2.07;1.93;;;;;;;;;;5063950;28;20541;-77
2022/10/13 04:42:17;;;;;;;0.60;0.60;;;;;;;;;;5078049;28;20449;-79
2022/10/13 04:44:44;;;;;;;0.77;0.77;;;;;;;;;;5067376;28;20444;-78
2022/10/13 04:47:14;;;;;;;0.70;0.70;;;;;;;;;;5078174;28;20699;-78
2022/10/13 04:49:40;;;;;;;0.80;0.70;;;;;;;;;;5074244;28;20438;-78
2022/10/13 04:52:09;;;;;;;1.17;1.07;;;;;;;;;;5078304;28;20462;-77
2022/10/13 04:54:35;;;;;;;0.77;0.77;;;;;;;;;;5089717;28;20485;-76
2022/10/13 04:57:02;;;;;;;0.70;0.70;;;;;;;;;;5081879;28;20474;-80
2022/10/13 04:59:29;;;;;;;0.70;0.70;;;;;;;;;;5077187;28;20451;-78
2022/10/13 05:01:57;;;;;;;0.60;0.60;;;;;;;;;;5080284;28;20911;-79
2022/10/13 05:04:24;;;;;;;0.80;0.80;;;;;;;;;;5078598;28;20437;-81
2022/10/13 05:06:50;;;;;;;1.63;1.17;;;;;;;;;;5080916;28;20464;-80
2022/10/13 05:09:40;;;;;;;1.47;1.40;;;;;;;;;;5077026;28;20457;-80
2022/10/13 05:12:11;;;;;;;0.70;0.70;;;;;;;;;;5069297;28;20792;-78
2022/10/13 05:14:39;;;;;;;0.93;0.90;;;;;;;;;;5076912;28;20433;-80
2022/10/13 05:17:06;;;;;;;0.70;0.60;;;;;;;;;;5063587;28;21015;-79
2022/10/13 05:19:33;;;;;;;0.70;0.60;;;;;;;;;;5050108;28;20543;-79
2022/10/13 05:22:01;;;;;;;3.37;1.23;;;;;;;;;;5076798;28;20927;-77
2022/10/13 05:24:35;;;;;;;2.87;2.67;;;;;;;;;;5081852;28;20429;-79
2022/10/13 05:27:04;;;;;;;0.60;0.60;;;;;;;;;;5061932;28;20456;-79
2022/10/13 05:29:31;;;;;;;0.70;0.63;;;;;;;;;;5083843;28;20444;-78
2022/10/13 05:31:58;;;;;;;0.60;0.60;;;;;;;;;;5082331;28;20433;-79
2022/10/13 05:34:25;;;;;;;0.60;0.60;;;;;;;;;;5076920;28;20452;-79
2022/10/13 05:36:51;;;;;;;0.60;0.60;;;;;;;;;;5079581;28;20486;-79
2022/10/13 05:39:18;;;;;;;0.60;0.60;;;;;;;;;;5079043;28;20433;-78
2022/10/13 05:41:45;;;;;;;1.77;1.67;;;;;;;;;;5076942;28;20449;-79
2022/10/13 05:44:19;;;;;;;1.17;1.07;;;;;;;;;;5087007;28;20442;-79
2022/10/13 05:46:52;;;;;;;0.70;0.60;;;;;;;;;;5054278;28;20977;-80
2022/10/13 05:49:18;;;;;;;1.00;0.90;;;;;;;;;;5068919;28;20457;-79
2022/10/13 05:51:46;;;;;;;0.60;0.60;;;;;;;;;;5059444;28;20469;-79
2022/10/13 05:54:16;;;;;;;0.90;0.90;;;;;;;;;;5058669;28;20572;-78
2022/10/13 05:56:46;;;;;;;0.70;0.60;;;;;;;;;;5067273;28;20487;-79
2022/10/13 05:59:15;;;;;;;0.90;0.90;;;;;;;;;;5069446;28;20449;-79
2022/10/13 06:01:47;;;;;;;1.40;1.30;;;;;;;;;;5082806;28;20452;-79
2022/10/13 06:04:18;;;;;;;1.77;1.67;;;;;;;;;;5068878;28;20945;-80
2022/10/13 06:06:46;;;;;;;0.60;0.60;;;;;;;;;;5069156;28;20470;-79
2022/10/13 06:09:14;;;;;;;1.10;1.00;;;;;;;;;;5077547;28;20456;-78
2022/10/13 06:11:41;;;;;;;0.70;0.70;;;;;;;;;;5085205;28;20510;-79
2022/10/13 06:14:08;;;;;;;0.70;0.60;;;;;;;;;;5065692;28;20456;-79
2022/10/13 06:16:35;;;;;;;0.87;0.87;;;;;;;;;;5067903;28;20512;-78
2022/10/13 06:19:04;;;;;;;0.80;0.80;;;;;;;;;;5073774;28;20560;-79
2022/10/13 06:21:33;;;;;;;0.60;0.60;;;;;;;;;;5077918;28;20569;-79
2022/10/13 06:24:00;;;;;;;0.63;0.60;;;;;;;;;;5085564;28;20972;-78
2022/10/13 06:26:27;;;;;;;0.60;0.60;;;;;;;;;;5086052;28;20947;-79
2022/10/13 06:28:53;;;;;;;0.70;0.67;;;;;;;;;;5087014;28;20439;-79
2022/10/13 06:31:26;;;;;;;0.60;0.60;;;;;;;;;;5060297;28;20481;-78
2022/10/13 06:33:54;;;;;;;1.20;1.10;;;;;;;;;;5091271;28;20467;-78
2022/10/13 06:36:22;;;;;;;1.60;1.50;;;;;;;;;;5081909;28;20473;-79
2022/10/13 06:38:49;;;;;;;0.70;0.70;;;;;;;;;;5053406;28;20453;-79
2022/10/13 06:41:19;;;;;;;1.03;0.93;;;;;;;;;;5075233;28;20480;-80
2022/10/13 06:43:45;;;;;;;0.90;0.77;;;;;;;;;;5078868;28;20527;-79
2022/10/13 06:46:15;;;;;;;0.70;0.63;;;;;;;;;;5081260;28;20457;-79
2022/10/13 06:48:43;;;;;;;0.70;0.70;;;;;;;;;;5069494;28;20458;-80
2022/10/13 06:51:11;;;;;;;0.70;0.70;;;;;;;;;;5082727;28;20469;-80
2022/10/13 06:53:39;;;;;;;0.70;0.70;;;;;;;;;;5082497;28;20898;-80
2022/10/13 06:56:07;;;;;;;1.23;1.17;;;;;;;;;;5067868;28;20438;-78
2022/10/13 06:58:34;;;;;;;0.67;0.60;;;;;;;;;;5080887;28;20464;-79
2022/10/13 07:01:03;;;;;;;0.97;0.90;;;;;;;;;;5085286;28;20446;-79
2022/10/13 07:03:30;;;;;;;0.70;0.70;;;;;;;;;;5084236;28;20525;-78
2022/10/13 07:06:01;;;;;;;0.70;0.70;;;;;;;;;;5078944;28;20489;-80
2022/10/13 07:08:29;;;;;;;0.70;0.70;;;;;;;;;;5092674;28;20461;-79
2022/10/13 07:10:57;;;;;;;0.70;0.70;;;;;;;;;;5089516;28;20446;-80
2022/10/13 07:13:24;;;;;;;0.70;0.67;;;;;;;;;;5081197;28;20818;-79
2022/10/13 07:15:52;;;;;;;0.70;0.70;;;;;;;;;;5059414;28;20442;-80
2022/10/13 07:18:19;;;;;;;3.00;2.70;;;;;;;;;;5083673;28;20925;-81
2022/10/13 07:20:48;;;;;;;0.70;0.70;;;;;;;;;;5077072;28;20517;-80
2022/10/13 07:23:15;;;;;;;0.70;0.60;;;;;;;;;;5075323;28;20442;-79
2022/10/13 07:25:41;;;;;;;0.70;0.70;;;;;;;;;;5060519;28;20954;-79
2022/10/13 07:28:10;;;;;;;0.73;0.73;;;;;;;;;;5077037;28;20426;-78
2022/10/13 07:30:37;;;;;;;0.70;0.70;;;;;;;;;;5068618;28;20944;-77
2022/10/13 07:33:07;;;;;;;0.90;0.90;;;;;;;;;;5088202;28;20461;-79
2022/10/13 07:35:37;;;;;;;0.90;0.90;;;;;;;;;;5083052;28;20465;-78
2022/10/13 07:38:04;;;;;;;1.10;1.00;;;;;;;;;;5069436;28;20476;-79
2022/10/13 07:40:31;;;;;;;0.70;0.70;;;;;;;;;;5082875;28;20927;-78
2022/10/13 07:42:58;;;;;;;0.80;0.80;;;;;;;;;;5086542;28;20457;-78
2022/10/13 07:45:26;;;;;;;1.17;1.00;;;;;;;;;;5083251;28;20481;-79
2022/10/13 07:47:54;;;;;;;0.90;0.90;;;;;;;;;;5083878;28;20435;-78
2022/10/13 07:50:21;;;;;;;0.80;0.80;;;;;;;;;;5064029;28;20471;-77
2022/10/13 07:52:47;;;;;;;0.70;0.60;;;;;;;;;;5077217;28;20468;-80
2022/10/13 07:55:14;;;;;;;0.70;0.70;;;;;;;;;;5066550;28;20450;-79
2022/10/13 07:57:44;;;;;;;0.70;0.70;;;;;;;;;;5076367;28;20459;-79
2022/10/13 08:00:11;;;;;;;0.90;0.90;;;;;;;;;;5068682;28;20977;-77
2022/10/13 08:02:40;;;;;;;0.70;0.70;;;;;;;;;;5079562;28;20485;-78
2022/10/13 08:05:07;;;;;;;4.97;1.57;;;;;;;;;;5082291;28;20450;-78
2022/10/13 08:07:36;;;;;;;0.70;0.70;;;;;;;;;;5081748;28;20447;-78
2022/10/13 08:10:04;;;;;;;0.80;0.80;;;;;;;;;;5081620;28;20457;-78
2022/10/13 08:12:33;;;;;;;0.80;0.80;;;;;;;;;;5082978;28;20448;-78
2022/10/13 08:15:00;;;;;;;2.80;2.60;;;;;;;;;;5065994;28;20863;-78
2022/10/13 08:17:39;;;;;;;0.83;0.83;;;;;;;;;;5070147;28;20506;-78
2022/10/13 08:20:06;;;;;;;0.70;0.70;;;;;;;;;;5082260;28;20467;-77
2022/10/13 08:22:33;;;;;;;0.80;0.80;;;;;;;;;;5065817;28;20480;-78
2022/10/13 08:25:00;;;;;;;0.70;0.70;;;;;;;;;;5084832;28;20466;-78
2022/10/13 08:27:28;;;;;;;1.17;0.90;;;;;;;;;;5092567;28;20503;-78
2022/10/13 08:30:15;;;;;;;1.10;1.00;;;;;;;;;;5084602;28;20946;-79
2022/10/13 08:32:43;;;;;;;1.10;1.00;;;;;;;;;;5067356;28;20460;-80
2022/10/13 08:35:14;;;;;;;0.70;0.60;;;;;;;;;;5086608;28;20484;-79
2022/10/13 08:37:41;;;;;;;1.83;1.73;;;;;;;;;;5082783;28;20504;-79
2022/10/13 08:40:11;;;;;;;0.73;0.70;;;;;;;;;;5083827;28;20831;-79
2022/10/13 08:42:41;;;;;;;0.80;0.80;;;;;;;;;;5063263;28;20965;-80
2022/10/13 08:45:14;;;;;;;0.80;0.80;;;;;;;;;;5082737;28;20475;-79
2022/10/13 08:48:04;;;;;;;1.90;1.80;;;;;;;;;;5063773;28;20424;-80
2022/10/13 08:50:34;;;;;;;2.70;1.40;;;;;;;;;;5089875;28;21301;-79
2022/10/13 08:53:04;;;;;;;1.00;0.90;;;;;;;;;;5066236;28;20452;-78
2022/10/13 08:55:33;;;;;;;0.70;0.70;;;;;;;;;;5076041;28;20454;-79
2022/10/13 08:58:01;;;;;;;2.50;1.10;;;;;;;;;;5060215;28;20476;-79
2022/10/13 09:00:29;;;;;;;0.80;0.70;;;;;;;;;;5084877;28;20541;-79
2022/10/13 09:03:00;;;;;;;0.80;0.77;;;;;;;;;;5069823;28;20659;-79
2022/10/13 09:05:35;;;;;;;0.80;0.80;;;;;;;;;;5085361;28;20495;-78
2022/10/13 09:08:03;;;;;;;1.20;1.10;;;;;;;;;;5061958;28;20448;-79
2022/10/13 09:10:31;;;;;;;1.87;1.07;;;;;;;;;;5067332;28;20489;-78
2022/10/13 09:13:02;;;;;;;0.80;0.70;;;;;;;;;;5068426;28;20446;-78
2022/10/13 09:15:41;;;;;;;13.03;2.50;;;;;;;;;;5071928;28;20926;-79
2022/10/13 09:18:12;;;;;;;0.73;0.70;;;;;;;;;;5070994;28;20474;-78
2022/10/13 09:20:43;;;;;;;1.13;1.07;;;;;;;;;;5071175;28;20545;-78
2022/10/13 09:23:16;;;;;;;0.80;0.73;;;;;;;;;;5079493;28;20538;-78
2022/10/13 09:25:45;;;;;;;0.90;0.90;;;;;;;;;;5078514;28;20429;-78
2022/10/13 09:28:14;;;;;;;0.90;0.90;;;;;;;;;;5069856;28;20542;-78
2022/10/13 09:30:45;;;;;;;1.60;1.50;;;;;;;;;;5060207;28;20519;-78
2022/10/13 09:33:15;;;;;;;0.70;0.70;;;;;;;;;;5063278;28;20883;-78
2022/10/13 09:35:45;;;;;;;0.80;0.80;;;;;;;;;;5066522;28;21048;-77
2022/10/13 09:38:14;;;;;;;1.13;1.03;;;;;;;;;;5073023;28;20491;-77
2022/10/13 09:40:41;;;;;;;1.43;1.33;;;;;;;;;;5065850;28;20447;-79
2022/10/13 09:43:23;;;;;;;1.53;1.43;;;;;;;;;;5062179;28;20448;-78
2022/10/13 09:45:50;;;;;;;0.80;0.80;;;;;;;;;;5055671;28;20463;-77
2022/10/13 09:48:22;;;;;;;0.80;0.70;;;;;;;;;;5063238;28;20427;-78
2022/10/13 09:50:53;;;;;;;0.80;0.80;;;;;;;;;;5082427;28;20830;-78
2022/10/13 09:53:22;;;;;;;0.70;0.70;;;;;;;;;;5077152;28;20506;-77
2022/10/13 09:56:09;;;;;;;1.23;1.13;;;;;;;;;;5080608;28;20956;-78
2022/10/13 09:58:37;;;;;;;0.70;0.70;;;;;;;;;;5066964;28;20471;-78
2022/10/13 10:01:04;;;;;;;1.00;0.90;;;;;;;;;;5080645;28;20501;-78
2022/10/13 10:03:34;;;;;;;1.83;1.73;;;;;;;;;;5065500;28;20429;-79
2022/10/13 10:06:04;;;;;;;0.80;0.70;;;;;;;;;;5061509;28;20462;-78
2022/10/13 10:08:33;;;;;;;0.80;0.70;;;;;;;;;;5062747;28;20541;-79
2022/10/13 10:11:26;;;;;;;0.80;0.70;;;;;;;;;;5087821;28;20440;-79
2022/10/13 10:13:57;;;;;;;0.80;0.80;;;;;;;;;;5091122;28;20434;-78
2022/10/13 10:16:30;;;;;;;1.00;0.90;;;;;;;;;;5082953;28;20526;-78
2022/10/13 10:19:00;;;;;;;3.40;1.67;;;;;;;;;;5067765;28;20452;-79
2022/10/13 10:21:32;;;;;;;1.20;0.90;;;;;;;;;;5066124;28;20466;-79
2022/10/13 10:24:01;;;;;;;0.83;0.83;;;;;;;;;;5080461;28;20446;-79
2022/10/13 10:26:38;;;;;;;0.80;0.70;;;;;;;;;;5066118;28;20459;-78
2022/10/13 10:29:11;;;;;;;1.57;1.47;;;;;;;;;;5082762;28;20415;-77
2022/10/13 10:31:45;;;;;;;1.33;1.00;;;;;;;;;;5079396;28;20494;-76
2022/10/13 10:34:26;;;;;;;0.80;0.77;;;;;;;;;;5078243;28;20448;-78
2022/10/13 10:37:01;;;;;;;1.13;1.00;;;;;;;;;;5069851;28;20468;-78
2022/10/13 10:39:35;;;;;;;2.23;2.03;;;;;;;;;;5085399;28;20476;-78
2022/10/13 10:42:08;;;;;;;13.63;2.63;;;;;;;;;;5074009;28;20478;-77
2022/10/13 10:44:37;;;;;;;0.80;0.80;;;;;;;;;;5075715;28;20913;-78
2022/10/13 10:47:05;;;;;;;0.80;0.80;;;;;;;;;;5078993;28;20441;-78
2022/10/13 10:49:34;;;;;;;0.90;0.90;;;;;;;;;;5078478;28;20495;-78
2022/10/13 10:52:05;;;;;;;0.80;0.80;;;;;;;;;;5080574;28;20896;-77
2022/10/13 10:54:38;;;;;;;1.00;0.90;;;;;;;;;;5083018;28;20495;-79
2022/10/13 10:57:11;;;;;;;0.80;0.73;;;;;;;;;;5083719;28;20449;-77
2022/10/13 10:59:51;;;;;;;1.00;0.87;;;;;;;;;;5081981;28;20481;-74
2022/10/13 11:02:32;;;;;;;0.80;0.80;;;;;;;;;;5079885;28;20464;-76
2022/10/13 11:05:00;;;;;;;0.80;0.80;;;;;;;;;;5087650;28;20430;-76
2022/10/13 11:07:56;;;;;;;1.60;1.07;;;;;;;;;;5067938;28;20447;-77
2022/10/13 11:10:23;;;;;;;0.80;0.70;;;;;;;;;;5069915;28;20447;-76
2022/10/13 11:13:24;;;;;;;0.80;0.73;;;;;;;;;;5061877;28;20469;-77
2022/10/13 11:15:54;;;;;;;0.90;0.90;;;;;;;;;;5072469;28;21488;-77
2022/10/13 11:18:40;;;;;;;0.80;0.80;;;;;;;;;;5085450;28;20462;-76
2022/10/13 11:21:07;;;;;;;1.00;0.90;;;;;;;;;;5068051;28;20430;-75
2022/10/13 11:23:42;;;;;;;0.80;0.80;;;;;;;;;;5080346;28;20441;-76
2022/10/13 11:26:26;;;;;;;0.70;0.70;;;;;;;;;;5089340;28;20432;-75
2022/10/13 11:28:53;;;;;;;0.70;0.67;;;;;;;;;;5065278;28;20426;-76
2022/10/13 11:31:24;;;;;;;0.80;0.80;;;;;;;;;;5071401;28;20498;-77
2022/10/13 11:34:00;;;;;;;11.23;1.63;;;;;;;;;;5083617;28;20457;-76
2022/10/13 11:36:30;;;;;;;0.80;0.80;;;;;;;;;;5077056;28;20497;-75
2022/10/13 11:39:01;;;;;;;1.57;1.47;;;;;;;;;;5075630;28;20988;-78
2022/10/13 11:41:32;;;;;;;6.30;1.47;;;;;;;;;;5062595;28;20459;-77
2022/10/13 11:44:02;;;;;;;0.80;0.80;;;;;;;;;;5078065;28;20445;-77
2022/10/13 11:46:35;;;;;;;1.50;1.40;;;;;;;;;;5081799;28;20504;-76
2022/10/13 11:49:13;;;;;;;1.00;0.83;;;;;;;;;;5075596;28;20441;-75
2022/10/13 11:51:48;;;;;;;0.80;0.77;;;;;;;;;;5079911;28;20541;-74
2022/10/13 11:54:22;;;;;;;0.80;0.73;;;;;;;;;;5078044;28;20430;-79
2022/10/13 11:56:52;;;;;;;0.90;0.90;;;;;;;;;;5086737;28;20781;-76
2022/10/13 11:59:21;;;;;;;0.83;0.83;;;;;;;;;;5074581;28;20880;-75
2022/10/13 12:01:51;;;;;;;0.70;0.70;;;;;;;;;;5077337;28;20448;-75
2022/10/13 12:04:25;;;;;;;0.70;0.70;;;;;;;;;;5089394;28;20455;-78
2022/10/13 12:06:56;;;;;;;0.80;0.70;;;;;;;;;;5054975;28;20495;-77
2022/10/13 12:09:28;;;;;;;0.70;0.70;;;;;;;;;;5057554;28;20464;-79
2022/10/13 12:11:56;;;;;;;0.80;0.80;;;;;;;;;;5076677;28;20454;-79
2022/10/13 12:14:26;;;;;;;0.80;0.70;;;;;;;;;;5087428;28;20474;-81
2022/10/13 12:16:53;;;;;;;0.80;0.70;;;;;;;;;;5078400;28;20514;-81
2022/10/13 12:19:21;;;;;;;0.80;0.70;;;;;;;;;;5081947;28;21014;-81
2022/10/13 12:21:49;;;;;;;0.70;0.70;;;;;;;;;;5082985;28;21116;-81
2022/10/13 12:24:16;;;;;;;0.80;0.70;;;;;;;;;;5058756;28;20478;-81
2022/10/13 12:26:44;;;;;;;0.80;0.80;;;;;;;;;;5067956;28;20460;-81
2022/10/13 12:29:13;;;;;;;0.80;0.73;;;;;;;;;;5081323;28;20481;-82
2022/10/13 12:31:42;;;;;;;0.80;0.70;;;;;;;;;;5046114;28;20537;-80
2022/10/13 12:34:26;;;;;;;0.73;0.70;;;;;;;;;;5064128;28;20455;-82
2022/10/13 12:36:58;;;;;;;0.80;0.80;;;;;;;;;;5078326;28;20465;-81
2022/10/13 12:39:27;;;;;;;0.80;0.70;;;;;;;;;;5084769;28;20464;-81
2022/10/13 12:41:56;;;;;;;0.70;0.60;;;;;;;;;;5064523;28;20467;-80
2022/10/13 12:44:24;;;;;;;2.90;2.60;;;;;;;;;;5077175;28;20515;-80
2022/10/13 12:46:54;;;;;;;1.50;1.40;;;;;;;;;;5070199;28;20452;-80
2022/10/13 12:49:22;;;;;;;0.80;0.77;;;;;;;;;;5081193;28;20443;-79
2022/10/13 12:51:51;;;;;;;0.80;0.70;;;;;;;;;;5062056;28;20579;-79
2022/10/13 12:54:21;;;;;;;0.80;0.80;;;;;;;;;;5056548;28;20460;-80
2022/10/13 12:56:49;;;;;;;0.80;0.77;;;;;;;;;;5071161;28;21044;-79
2022/10/13 12:59:24;;;;;;;0.83;0.83;;;;;;;;;;5050439;28;20469;-81
2022/10/13 13:01:54;;;;;;;0.80;0.80;;;;;;;;;;5085334;28;20519;-78
2022/10/13 13:04:40;;;;;;;0.80;0.80;;;;;;;;;;5080950;28;20440;-79
2022/10/13 13:07:23;;;;;;;0.80;0.80;;;;;;;;;;5082903;28;20995;-79
2022/10/13 13:09:58;;;;;;;2.43;2.23;;;;;;;;;;5066749;28;20458;-79
2022/10/13 13:12:26;;;;;;;0.80;0.80;;;;;;;;;;5067063;28;21071;-79
2022/10/13 13:14:55;;;;;;;1.70;1.00;;;;;;;;;;5070827;28;20447;-81
2022/10/13 13:17:24;;;;;;;0.73;0.70;;;;;;;;;;5076758;28;20437;-79
2022/10/13 13:20:20;;;;;;;0.70;0.70;;;;;;;;;;5048274;28;20553;-79
2022/10/13 13:22:46;;;;;;;0.80;0.70;;;;;;;;;;5058894;28;20981;-80
2022/10/13 13:25:14;;;;;;;0.80;0.77;;;;;;;;;;5068717;28;20449;-80
2022/10/13 13:27:43;;;;;;;0.80;0.80;;;;;;;;;;5088945;28;21016;-81
2022/10/13 13:30:18;;;;;;;0.80;0.73;;;;;;;;;;5081790;28;20446;-80
2022/10/13 13:32:46;;;;;;;3.33;0.93;;;;;;;;;;5081836;28;20491;-78
2022/10/13 13:35:14;;;;;;;0.80;0.80;;;;;;;;;;5083198;28;20453;-77
2022/10/13 13:37:43;;;;;;;0.80;0.80;;;;;;;;;;5067100;28;20447;-79
2022/10/13 13:40:14;;;;;;;0.80;0.80;;;;;;;;;;5067798;28;20529;-79
2022/10/13 13:42:41;;;;;;;0.73;0.70;;;;;;;;;;5079761;28;20557;-80
2022/10/13 13:45:10;;;;;;;0.80;0.80;;;;;;;;;;5080242;28;20900;-80
2022/10/13 13:47:39;;;;;;;1.53;1.43;;;;;;;;;;5089192;28;20452;-79
2022/10/13 13:50:12;;;;;;;1.00;1.00;;;;;;;;;;5073619;28;20455;-79
2022/10/13 13:52:40;;;;;;;1.73;1.07;;;;;;;;;;5083381;28;20470;-80
2022/10/13 13:55:09;;;;;;;0.97;0.90;;;;;;;;;;5083180;28;20539;-78
2022/10/13 13:57:35;;;;;;;0.80;0.80;;;;;;;;;;5085788;28;20434;-80
2022/10/13 14:00:03;;;;;;;0.70;0.70;;;;;;;;;;5062973;28;20484;-80
2022/10/13 14:02:37;;;;;;;0.70;0.70;;;;;;;;;;5082360;28;20405;-82
2022/10/13 14:05:06;;;;;;;2.23;2.13;;;;;;;;;;5067168;28;20859;-84
2022/10/13 14:07:34;;;;;;;5.63;3.03;;;;;;;;;;5059814;28;20454;-81
2022/10/13 14:10:01;;;;;;;0.80;0.80;;;;;;;;;;5081228;28;20448;-81
2022/10/13 14:12:29;;;;;;;1.20;1.10;;;;;;;;;;5078494;28;20714;-81
2022/10/13 14:14:57;;;;;;;0.93;0.93;;;;;;;;;;5072210;28;20819;-82
2022/10/13 14:17:24;;;;;;;1.13;1.03;;;;;;;;;;5074042;28;20511;-83
2022/10/13 14:19:51;;;;;;;0.80;0.80;;;;;;;;;;5063658;28;20474;-83
2022/10/13 14:22:19;;;;;;;0.83;0.83;;;;;;;;;;5067382;28;20474;-82
2022/10/13 14:24:47;;;;;;;1.27;1.20;;;;;;;;;;5085393;28;20450;-82
2022/10/13 14:27:15;;;;;;;0.70;0.70;;;;;;;;;;5085186;28;20445;-81
2022/10/13 14:29:42;;;;;;;0.80;0.73;;;;;;;;;;5085879;28;20816;-83
2022/10/13 14:32:10;;;;;;;1.27;1.17;;;;;;;;;;5086109;28;20426;-82
2022/10/13 14:34:37;;;;;;;1.00;0.90;;;;;;;;;;5087795;28;20457;-83
2022/10/13 14:37:04;;;;;;;1.40;1.30;;;;;;;;;;5085330;28;20556;-83
2022/10/13 14:39:35;;;;;;;1.63;1.53;;;;;;;;;;5055441;28;20834;-83
2022/10/13 14:42:02;;;;;;;1.13;1.03;;;;;;;;;;5078914;28;20455;-83
2022/10/13 14:44:29;;;;;;;1.20;1.10;;;;;;;;;;5092331;28;20445;-83
2022/10/13 14:46:55;;;;;;;0.80;0.70;;;;;;;;;;5071585;28;20550;-86
2022/10/13 14:49:22;;;;;;;0.90;0.90;;;;;;;;;;5086886;28;20479;-83
2022/10/13 14:51:51;;;;;;;0.77;0.70;;;;;;;;;;5084361;28;20458;-86
2022/10/13 14:54:18;;;;;;;1.30;1.20;;;;;;;;;;5073419;28;20445;-86
2022/10/13 14:56:46;;;;;;;1.10;1.00;;;;;;;;;;5085309;28;20545;-87
2022/10/13 14:59:12;;;;;;;0.70;0.70;;;;;;;;;;5087143;28;21014;-86